sensor_id;sensor_type;location;lat;lon;timestamp;pressure;altitude;pressure_sealevel;temperature;humidity
4449;BME280;2237;51.870;6.160;2023-07-24T00:00:19;100370.72;;;20.48;100.00
4449;BME280;2237;51.870;6.160;2023-07-24T00:02:46;100374.09;;;20.50;100.00
4449;BME280;2237;51.870;6.160;2023-07-24T00:05:13;100366.78;;;20.41;100.00
4449;BME280;2237;51.870;6.160;2023-07-24T00:07:39;100364.34;;;20.38;100.00
4449;BME280;2237;51.870;6.160;2023-07-24T00:10:06;100371.13;;;20.42;100.00
4449;BME280;2237;51.870;6.160;2023-07-24T00:12:33;100369.78;;;20.37;100.00
4449;BME280;2237;51.870;6.160;2023-07-24T00:14:59;100349.84;;;20.44;100.00
4449;BME280;2237;51.870;6.160;2023-07-24T00:17:25;100351.69;;;20.31;100.00
4449;BME280;2237;51.870;6.160;2023-07-24T00:19:52;100352.41;;;20.45;100.00
4449;BME280;2237;51.870;6.160;2023-07-24T00:22:18;100349.34;;;20.51;100.00
4449;BME280;2237;51.870;6.160;2023-07-24T00:24:45;100343.97;;;20.40;100.00
4449;BME280;2237;51.870;6.160;2023-07-24T00:27:11;100348.69;;;20.35;100.00
4449;BME280;2237;51.870;6.160;2023-07-24T00:29:38;100347.25;;;20.31;100.00
4449;BME280;2237;51.870;6.160;2023-07-24T00:32:04;100346.81;;;20.37;100.00
4449;BME280;2237;51.870;6.160;2023-07-24T00:34:31;100347.84;;;20.35;100.00
4449;BME280;2237;51.870;6.160;2023-07-24T00:36:57;100342.47;;;20.36;100.00
4449;BME280;2237;51.870;6.160;2023-07-24T00:39:24;100333.38;;;20.40;100.00
4449;BME280;2237;51.870;6.160;2023-07-24T00:41:50;100343.19;;;20.38;100.00
4449;BME280;2237;51.870;6.160;2023-07-24T00:44:18;100338.13;;;20.35;100.00
4449;BME280;2237;51.870;6.160;2023-07-24T00:46:45;100338.34;;;20.32;100.00
4449;BME280;2237;51.870;6.160;2023-07-24T00:49:12;100331.81;;;20.25;100.00
4449;BME280;2237;51.870;6.160;2023-07-24T00:51:39;100326.41;;;20.26;100.00
4449;BME280;2237;51.870;6.160;2023-07-24T00:54:07;100323.22;;;20.34;100.00
4449;BME280;2237;51.870;6.160;2023-07-24T00:56:34;100325.88;;;20.34;100.00
4449;BME280;2237;51.870;6.160;2023-07-24T00:59:01;100311.50;;;20.25;100.00
4449;BME280;2237;51.870;6.160;2023-07-24T01:01:28;100318.63;;;20.23;100.00
4449;BME280;2237;51.870;6.160;2023-07-24T01:03:56;100314.13;;;20.13;100.00
4449;BME280;2237;51.870;6.160;2023-07-24T01:06:23;100321.84;;;20.16;100.00
4449;BME280;2237;51.870;6.160;2023-07-24T01:08:50;100310.19;;;20.06;100.00
4449;BME280;2237;51.870;6.160;2023-07-24T01:11:19;100303.19;;;20.17;100.00
4449;BME280;2237;51.870;6.160;2023-07-24T01:13:54;100306.41;;;20.22;100.00
4449;BME280;2237;51.870;6.160;2023-07-24T01:16:23;100288.81;;;20.21;100.00
4449;BME280;2237;51.870;6.160;2023-07-24T01:18:53;100296.53;;;20.24;100.00
4449;BME280;2237;51.870;6.160;2023-07-24T01:21:30;100302.03;;;20.21;100.00
4449;BME280;2237;51.870;6.160;2023-07-24T01:24:14;100286.41;;;20.18;100.00
4449;BME280;2237;51.870;6.160;2023-07-24T01:26:44;100301.97;;;20.10;100.00
4449;BME280;2237;51.870;6.160;2023-07-24T01:29:11;100284.59;;;20.19;100.00
4449;BME280;2237;51.870;6.160;2023-07-24T01:31:37;100278.34;;;20.20;100.00
4449;BME280;2237;51.870;6.160;2023-07-24T01:34:04;100279.78;;;20.25;100.00
4449;BME280;2237;51.870;6.160;2023-07-24T01:36:30;100273.19;;;20.06;100.00
4449;BME280;2237;51.870;6.160;2023-07-24T01:38:58;100269.91;;;20.15;100.00
4449;BME280;2237;51.870;6.160;2023-07-24T01:41:25;100275.38;;;20.24;100.00
4449;BME280;2237;51.870;6.160;2023-07-24T01:43:52;100288.53;;;20.26;100.00
4449;BME280;2237;51.870;6.160;2023-07-24T01:46:18;100270.19;;;20.23;100.00
4449;BME280;2237;51.870;6.160;2023-07-24T01:48:45;100272.31;;;20.18;100.00
4449;BME280;2237;51.870;6.160;2023-07-24T01:51:12;100256.97;;;20.23;100.00
4449;BME280;2237;51.870;6.160;2023-07-24T01:53:39;100250.31;;;20.17;100.00
4449;BME280;2237;51.870;6.160;2023-07-24T01:56:05;100247.16;;;20.12;100.00
4449;BME280;2237;51.870;6.160;2023-07-24T01:58:31;100243.16;;;20.19;100.00
4449;BME280;2237;51.870;6.160;2023-07-24T02:00:58;100244.44;;;20.14;100.00
4449;BME280;2237;51.870;6.160;2023-07-24T02:03:24;100241.00;;;20.24;100.00
4449;BME280;2237;51.870;6.160;2023-07-24T02:05:51;100225.97;;;20.38;100.00
4449;BME280;2237;51.870;6.160;2023-07-24T02:08:17;100243.56;;;20.26;100.00
4449;BME280;2237;51.870;6.160;2023-07-24T02:10:48;100235.72;;;20.37;100.00
4449;BME280;2237;51.870;6.160;2023-07-24T02:13:14;100242.25;;;20.44;100.00
4449;BME280;2237;51.870;6.160;2023-07-24T02:15:41;100239.81;;;20.41;100.00
4449;BME280;2237;51.870;6.160;2023-07-24T02:18:07;100230.94;;;20.42;100.00
4449;BME280;2237;51.870;6.160;2023-07-24T02:20:34;100226.59;;;20.41;100.00
4449;BME280;2237;51.870;6.160;2023-07-24T02:23:00;100226.09;;;20.36;100.00
4449;BME280;2237;51.870;6.160;2023-07-24T02:25:26;100229.69;;;20.35;100.00
4449;BME280;2237;51.870;6.160;2023-07-24T02:27:53;100229.06;;;20.32;100.00
4449;BME280;2237;51.870;6.160;2023-07-24T02:30:19;100225.59;;;20.31;100.00
4449;BME280;2237;51.870;6.160;2023-07-24T02:32:46;100224.84;;;20.29;100.00
4449;BME280;2237;51.870;6.160;2023-07-24T02:35:12;100225.66;;;20.42;100.00
4449;BME280;2237;51.870;6.160;2023-07-24T02:37:39;100219.63;;;20.40;100.00
4449;BME280;2237;51.870;6.160;2023-07-24T02:40:05;100215.72;;;20.33;100.00
4449;BME280;2237;51.870;6.160;2023-07-24T02:42:32;100220.53;;;20.28;100.00
4449;BME280;2237;51.870;6.160;2023-07-24T02:44:58;100217.66;;;20.31;100.00
4449;BME280;2237;51.870;6.160;2023-07-24T02:47:25;100226.75;;;20.27;100.00
4449;BME280;2237;51.870;6.160;2023-07-24T02:49:52;100216.31;;;20.25;100.00
4449;BME280;2237;51.870;6.160;2023-07-24T02:52:18;100223.25;;;20.26;100.00
4449;BME280;2237;51.870;6.160;2023-07-24T02:54:44;100229.38;;;20.40;100.00
4449;BME280;2237;51.870;6.160;2023-07-24T02:57:11;100221.94;;;20.45;100.00
4449;BME280;2237;51.870;6.160;2023-07-24T02:59:37;100217.28;;;20.48;100.00
4449;BME280;2237;51.870;6.160;2023-07-24T03:02:04;100206.47;;;20.51;100.00
4449;BME280;2237;51.870;6.160;2023-07-24T03:04:30;100215.34;;;20.50;100.00
4449;BME280;2237;51.870;6.160;2023-07-24T03:06:57;100209.22;;;20.50;100.00
4449;BME280;2237;51.870;6.160;2023-07-24T03:09:23;100208.38;;;20.49;100.00
4449;BME280;2237;51.870;6.160;2023-07-24T03:11:50;100209.38;;;20.36;100.00
4449;BME280;2237;51.870;6.160;2023-07-24T03:14:16;100211.53;;;20.31;100.00
4449;BME280;2237;51.870;6.160;2023-07-24T03:16:43;100225.38;;;20.34;100.00
4449;BME280;2237;51.870;6.160;2023-07-24T03:19:09;100222.81;;;20.33;100.00
4449;BME280;2237;51.870;6.160;2023-07-24T03:21:35;100224.63;;;20.32;100.00
4449;BME280;2237;51.870;6.160;2023-07-24T03:24:02;100221.75;;;20.35;100.00
4449;BME280;2237;51.870;6.160;2023-07-24T03:26:31;100199.97;;;20.32;100.00
4449;BME280;2237;51.870;6.160;2023-07-24T03:28:58;100195.75;;;20.29;100.00
4449;BME280;2237;51.870;6.160;2023-07-24T03:31:24;100194.44;;;20.35;100.00
4449;BME280;2237;51.870;6.160;2023-07-24T03:33:51;100195.97;;;20.26;100.00
4449;BME280;2237;51.870;6.160;2023-07-24T03:36:17;100205.94;;;20.10;100.00
4449;BME280;2237;51.870;6.160;2023-07-24T03:38:43;100188.06;;;20.13;100.00
4449;BME280;2237;51.870;6.160;2023-07-24T03:41:10;100193.22;;;20.15;100.00
4449;BME280;2237;51.870;6.160;2023-07-24T03:43:36;100193.56;;;20.10;100.00
4449;BME280;2237;51.870;6.160;2023-07-24T03:46:03;100181.47;;;20.19;100.00
4449;BME280;2237;51.870;6.160;2023-07-24T03:48:29;100170.56;;;20.23;100.00
4449;BME280;2237;51.870;6.160;2023-07-24T03:50:59;100167.50;;;20.29;100.00
4449;BME280;2237;51.870;6.160;2023-07-24T03:53:28;100176.06;;;20.20;100.00
4449;BME280;2237;51.870;6.160;2023-07-24T03:55:58;100174.72;;;20.15;100.00
4449;BME280;2237;51.870;6.160;2023-07-24T03:58:24;100171.00;;;20.17;100.00
4449;BME280;2237;51.870;6.160;2023-07-24T04:00:50;100175.28;;;20.07;100.00
4449;BME280;2237;51.870;6.160;2023-07-24T04:03:17;100181.41;;;20.08;100.00
4449;BME280;2237;51.870;6.160;2023-07-24T04:05:43;100168.19;;;20.08;100.00
4449;BME280;2237;51.870;6.160;2023-07-24T04:08:10;100162.56;;;20.12;100.00
4449;BME280;2237;51.870;6.160;2023-07-24T04:10:36;100175.50;;;20.04;100.00
4449;BME280;2237;51.870;6.160;2023-07-24T04:13:03;100182.06;;;19.99;100.00
4449;BME280;2237;51.870;6.160;2023-07-24T04:15:29;100182.50;;;19.93;100.00
4449;BME280;2237;51.870;6.160;2023-07-24T04:17:56;100191.63;;;19.63;100.00
4449;BME280;2237;51.870;6.160;2023-07-24T04:20:22;100183.91;;;19.60;100.00
4449;BME280;2237;51.870;6.160;2023-07-24T04:22:49;100188.25;;;19.61;100.00
4449;BME280;2237;51.870;6.160;2023-07-24T04:25:15;100191.31;;;19.55;100.00
4449;BME280;2237;51.870;6.160;2023-07-24T04:27:42;100189.41;;;19.45;100.00
4449;BME280;2237;51.870;6.160;2023-07-24T04:30:08;100180.81;;;19.29;100.00
4449;BME280;2237;51.870;6.160;2023-07-24T04:32:35;100188.00;;;19.27;100.00
4449;BME280;2237;51.870;6.160;2023-07-24T04:35:01;100181.88;;;19.26;100.00
4449;BME280;2237;51.870;6.160;2023-07-24T04:37:28;100167.72;;;19.27;100.00
4449;BME280;2237;51.870;6.160;2023-07-24T04:39:54;100178.91;;;19.31;100.00
4449;BME280;2237;51.870;6.160;2023-07-24T04:42:21;100196.56;;;19.17;100.00
4449;BME280;2237;51.870;6.160;2023-07-24T04:44:47;100194.00;;;19.16;100.00
4449;BME280;2237;51.870;6.160;2023-07-24T04:47:16;100182.28;;;19.20;100.00
4449;BME280;2237;51.870;6.160;2023-07-24T04:49:42;100171.00;;;19.18;100.00
4449;BME280;2237;51.870;6.160;2023-07-24T04:52:09;100181.56;;;19.18;100.00
4449;BME280;2237;51.870;6.160;2023-07-24T04:54:35;100175.44;;;19.17;100.00
4449;BME280;2237;51.870;6.160;2023-07-24T04:57:01;100180.91;;;19.27;100.00
4449;BME280;2237;51.870;6.160;2023-07-24T04:59:28;100182.38;;;19.18;100.00
4449;BME280;2237;51.870;6.160;2023-07-24T05:01:54;100175.31;;;19.19;100.00
4449;BME280;2237;51.870;6.160;2023-07-24T05:04:22;100184.94;;;19.20;100.00
4449;BME280;2237;51.870;6.160;2023-07-24T05:06:48;100181.56;;;19.18;100.00
4449;BME280;2237;51.870;6.160;2023-07-24T05:09:15;100181.13;;;19.37;100.00
4449;BME280;2237;51.870;6.160;2023-07-24T05:11:41;100181.25;;;19.35;100.00
4449;BME280;2237;51.870;6.160;2023-07-24T05:14:11;100185.03;;;19.31;100.00
4449;BME280;2237;51.870;6.160;2023-07-24T05:16:37;100189.50;;;19.18;100.00
4449;BME280;2237;51.870;6.160;2023-07-24T05:19:04;100184.41;;;19.15;100.00
4449;BME280;2237;51.870;6.160;2023-07-24T05:21:30;100188.50;;;19.19;100.00
4449;BME280;2237;51.870;6.160;2023-07-24T05:23:57;100184.19;;;19.18;100.00
4449;BME280;2237;51.870;6.160;2023-07-24T05:26:23;100173.84;;;19.15;100.00
4449;BME280;2237;51.870;6.160;2023-07-24T05:28:50;100183.78;;;19.24;100.00
4449;BME280;2237;51.870;6.160;2023-07-24T05:31:16;100188.22;;;19.24;100.00
4449;BME280;2237;51.870;6.160;2023-07-24T05:33:43;100184.00;;;19.21;100.00
4449;BME280;2237;51.870;6.160;2023-07-24T05:36:09;100191.56;;;19.13;100.00
4449;BME280;2237;51.870;6.160;2023-07-24T05:38:35;100199.38;;;19.27;100.00
4449;BME280;2237;51.870;6.160;2023-07-24T05:41:03;100192.13;;;19.18;100.00
4449;BME280;2237;51.870;6.160;2023-07-24T05:43:30;100195.81;;;19.28;100.00
4449;BME280;2237;51.870;6.160;2023-07-24T05:45:57;100197.84;;;19.37;100.00
4449;BME280;2237;51.870;6.160;2023-07-24T05:48:24;100203.66;;;19.42;100.00
4449;BME280;2237;51.870;6.160;2023-07-24T05:50:51;100208.53;;;19.48;100.00
4449;BME280;2237;51.870;6.160;2023-07-24T05:53:18;100200.47;;;19.37;100.00
4449;BME280;2237;51.870;6.160;2023-07-24T05:55:44;100208.75;;;19.45;100.00
4449;BME280;2237;51.870;6.160;2023-07-24T05:58:11;100211.25;;;19.34;100.00
4449;BME280;2237;51.870;6.160;2023-07-24T06:00:37;100205.88;;;19.48;100.00
4449;BME280;2237;51.870;6.160;2023-07-24T06:03:04;100209.38;;;19.74;100.00
4449;BME280;2237;51.870;6.160;2023-07-24T06:05:33;100220.88;;;19.86;100.00
4449;BME280;2237;51.870;6.160;2023-07-24T06:08:00;100215.78;;;19.95;100.00
4449;BME280;2237;51.870;6.160;2023-07-24T06:10:26;100216.97;;;19.79;100.00
4449;BME280;2237;51.870;6.160;2023-07-24T06:12:53;100222.91;;;19.82;100.00
4449;BME280;2237;51.870;6.160;2023-07-24T06:15:19;100203.22;;;19.73;100.00
4449;BME280;2237;51.870;6.160;2023-07-24T06:17:45;100219.94;;;19.87;100.00
4449;BME280;2237;51.870;6.160;2023-07-24T06:20:12;100216.66;;;19.83;100.00
4449;BME280;2237;51.870;6.160;2023-07-24T06:22:38;100216.56;;;19.85;100.00
4449;BME280;2237;51.870;6.160;2023-07-24T06:25:05;100217.84;;;19.66;100.00
4449;BME280;2237;51.870;6.160;2023-07-24T06:27:31;100216.88;;;19.80;100.00
4449;BME280;2237;51.870;6.160;2023-07-24T06:29:58;100217.94;;;19.90;100.00
4449;BME280;2237;51.870;6.160;2023-07-24T06:32:40;100203.38;;;20.08;100.00
4449;BME280;2237;51.870;6.160;2023-07-24T06:35:07;100202.22;;;20.25;100.00
4449;BME280;2237;51.870;6.160;2023-07-24T06:37:33;100208.31;;;20.38;100.00
4449;BME280;2237;51.870;6.160;2023-07-24T06:39:59;100207.59;;;20.36;100.00
4449;BME280;2237;51.870;6.160;2023-07-24T06:42:26;100217.72;;;20.42;100.00
4449;BME280;2237;51.870;6.160;2023-07-24T06:44:52;100219.47;;;20.54;100.00
4449;BME280;2237;51.870;6.160;2023-07-24T06:47:19;100212.53;;;20.64;100.00
4449;BME280;2237;51.870;6.160;2023-07-24T06:49:45;100214.00;;;20.68;100.00
4449;BME280;2237;51.870;6.160;2023-07-24T06:52:13;100211.88;;;20.73;100.00
4449;BME280;2237;51.870;6.160;2023-07-24T06:54:39;100205.50;;;20.76;100.00
4449;BME280;2237;51.870;6.160;2023-07-24T06:57:06;100200.53;;;20.95;100.00
4449;BME280;2237;51.870;6.160;2023-07-24T06:59:32;100203.69;;;21.00;100.00
4449;BME280;2237;51.870;6.160;2023-07-24T07:01:59;100206.16;;;21.14;100.00
4449;BME280;2237;51.870;6.160;2023-07-24T07:04:25;100206.19;;;21.02;100.00
4449;BME280;2237;51.870;6.160;2023-07-24T07:06:52;100212.94;;;20.71;100.00
4449;BME280;2237;51.870;6.160;2023-07-24T07:09:18;100221.94;;;20.68;100.00
4449;BME280;2237;51.870;6.160;2023-07-24T07:11:45;100218.41;;;20.80;100.00
4449;BME280;2237;51.870;6.160;2023-07-24T07:14:11;100208.03;;;21.01;100.00
4449;BME280;2237;51.870;6.160;2023-07-24T07:16:38;100215.06;;;21.13;100.00
4449;BME280;2237;51.870;6.160;2023-07-24T07:19:05;100218.63;;;21.01;100.00
4449;BME280;2237;51.870;6.160;2023-07-24T07:21:32;100216.03;;;20.89;100.00
4449;BME280;2237;51.870;6.160;2023-07-24T07:23:58;100216.16;;;20.63;100.00
4449;BME280;2237;51.870;6.160;2023-07-24T07:26:24;100215.69;;;20.69;100.00
4449;BME280;2237;51.870;6.160;2023-07-24T07:28:51;100218.09;;;20.72;100.00
4449;BME280;2237;51.870;6.160;2023-07-24T07:31:18;100214.56;;;20.61;100.00
4449;BME280;2237;51.870;6.160;2023-07-24T07:33:44;100220.16;;;20.69;100.00
4449;BME280;2237;51.870;6.160;2023-07-24T07:36:11;100213.34;;;20.77;100.00
4449;BME280;2237;51.870;6.160;2023-07-24T07:38:38;100210.28;;;20.95;100.00
4449;BME280;2237;51.870;6.160;2023-07-24T07:41:06;100211.06;;;21.08;100.00
4449;BME280;2237;51.870;6.160;2023-07-24T07:43:32;100204.81;;;21.09;100.00
4449;BME280;2237;51.870;6.160;2023-07-24T07:45:59;100202.41;;;20.82;100.00
4449;BME280;2237;51.870;6.160;2023-07-24T07:48:25;100209.66;;;20.91;100.00
4449;BME280;2237;51.870;6.160;2023-07-24T07:50:52;100204.66;;;20.75;100.00
4449;BME280;2237;51.870;6.160;2023-07-24T07:53:18;100200.44;;;20.73;100.00
4449;BME280;2237;51.870;6.160;2023-07-24T07:55:45;100213.03;;;20.69;100.00
4449;BME280;2237;51.870;6.160;2023-07-24T07:58:11;100212.00;;;20.48;100.00
4449;BME280;2237;51.870;6.160;2023-07-24T08:00:38;100201.69;;;20.56;100.00
4449;BME280;2237;51.870;6.160;2023-07-24T08:03:06;100196.47;;;20.78;100.00
4449;BME280;2237;51.870;6.160;2023-07-24T08:05:32;100191.25;;;20.90;100.00
4449;BME280;2237;51.870;6.160;2023-07-24T08:07:59;100196.91;;;20.96;100.00
4449;BME280;2237;51.870;6.160;2023-07-24T08:10:25;100191.78;;;21.06;100.00
4449;BME280;2237;51.870;6.160;2023-07-24T08:12:52;100204.75;;;21.32;100.00
4449;BME280;2237;51.870;6.160;2023-07-24T08:15:18;100192.16;;;21.47;100.00
4449;BME280;2237;51.870;6.160;2023-07-24T08:17:44;100201.28;;;21.43;100.00
4449;BME280;2237;51.870;6.160;2023-07-24T08:20:11;100194.78;;;21.47;100.00
4449;BME280;2237;51.870;6.160;2023-07-24T08:22:37;100195.88;;;21.45;100.00
4449;BME280;2237;51.870;6.160;2023-07-24T08:25:04;100196.13;;;21.53;100.00
4449;BME280;2237;51.870;6.160;2023-07-24T08:27:31;100194.19;;;21.55;100.00
4449;BME280;2237;51.870;6.160;2023-07-24T08:30:01;100184.44;;;21.55;100.00
4449;BME280;2237;51.870;6.160;2023-07-24T08:32:27;100187.31;;;21.30;100.00
4449;BME280;2237;51.870;6.160;2023-07-24T08:34:54;100192.59;;;21.30;100.00
4449;BME280;2237;51.870;6.160;2023-07-24T08:37:21;100192.69;;;21.28;100.00
4449;BME280;2237;51.870;6.160;2023-07-24T08:39:47;100193.91;;;21.24;100.00
4449;BME280;2237;51.870;6.160;2023-07-24T08:42:13;100212.25;;;21.04;100.00
4449;BME280;2237;51.870;6.160;2023-07-24T08:44:41;100201.00;;;20.89;100.00
4449;BME280;2237;51.870;6.160;2023-07-24T08:47:10;100197.31;;;21.03;100.00
4449;BME280;2237;51.870;6.160;2023-07-24T08:49:38;100204.50;;;20.90;100.00
4449;BME280;2237;51.870;6.160;2023-07-24T08:52:07;100200.66;;;21.05;100.00
4449;BME280;2237;51.870;6.160;2023-07-24T08:54:38;100203.88;;;21.10;100.00
4449;BME280;2237;51.870;6.160;2023-07-24T08:57:08;100203.88;;;20.86;100.00
4449;BME280;2237;51.870;6.160;2023-07-24T08:59:34;100195.94;;;20.86;100.00
4449;BME280;2237;51.870;6.160;2023-07-24T09:02:01;100174.84;;;20.84;100.00
4449;BME280;2237;51.870;6.160;2023-07-24T09:04:28;100183.94;;;20.69;100.00
4449;BME280;2237;51.870;6.160;2023-07-24T09:06:57;100171.59;;;20.81;100.00
4449;BME280;2237;51.870;6.160;2023-07-24T09:09:29;100175.72;;;20.96;100.00
4449;BME280;2237;51.870;6.160;2023-07-24T09:11:56;100175.47;;;21.12;100.00
4449;BME280;2237;51.870;6.160;2023-07-24T09:14:26;100173.06;;;21.20;100.00
4449;BME280;2237;51.870;6.160;2023-07-24T09:17:03;100163.56;;;21.39;100.00
4449;BME280;2237;51.870;6.160;2023-07-24T09:19:30;100171.44;;;21.63;100.00
4449;BME280;2237;51.870;6.160;2023-07-24T09:22:14;100169.28;;;21.90;100.00
4449;BME280;2237;51.870;6.160;2023-07-24T09:24:55;100169.50;;;22.10;100.00
4449;BME280;2237;51.870;6.160;2023-07-24T09:27:27;100166.81;;;22.21;100.00
4449;BME280;2237;51.870;6.160;2023-07-24T09:29:55;100152.56;;;22.33;100.00
4449;BME280;2237;51.870;6.160;2023-07-24T09:32:23;100148.22;;;22.43;100.00
4449;BME280;2237;51.870;6.160;2023-07-24T09:34:51;100144.72;;;22.74;100.00
4449;BME280;2237;51.870;6.160;2023-07-24T09:39:49;100142.97;;;23.46;100.00
4449;BME280;2237;51.870;6.160;2023-07-24T09:42:16;100137.56;;;23.57;100.00
4449;BME280;2237;51.870;6.160;2023-07-24T09:44:42;100136.09;;;23.23;100.00
4449;BME280;2237;51.870;6.160;2023-07-24T09:47:09;100141.00;;;23.39;100.00
4449;BME280;2237;51.870;6.160;2023-07-24T09:49:56;100131.56;;;23.35;100.00
4449;BME280;2237;51.870;6.160;2023-07-24T09:52:23;100131.97;;;23.10;100.00
4449;BME280;2237;51.870;6.160;2023-07-24T09:55:16;100134.91;;;23.06;100.00
4449;BME280;2237;51.870;6.160;2023-07-24T09:57:46;100136.63;;;23.17;100.00
4449;BME280;2237;51.870;6.160;2023-07-24T10:00:13;100124.91;;;23.20;100.00
4449;BME280;2237;51.870;6.160;2023-07-24T10:02:40;100132.22;;;23.27;100.00
4449;BME280;2237;51.870;6.160;2023-07-24T10:05:07;100127.19;;;23.54;100.00
4449;BME280;2237;51.870;6.160;2023-07-24T10:07:34;100117.72;;;23.61;100.00
4449;BME280;2237;51.870;6.160;2023-07-24T10:10:01;100120.19;;;23.93;100.00
4449;BME280;2237;51.870;6.160;2023-07-24T10:12:28;100111.66;;;23.90;100.00
4449;BME280;2237;51.870;6.160;2023-07-24T10:14:56;100098.81;;;23.34;100.00
4449;BME280;2237;51.870;6.160;2023-07-24T10:17:34;100089.69;;;23.48;100.00
4449;BME280;2237;51.870;6.160;2023-07-24T10:20:03;100091.44;;;23.38;100.00
4449;BME280;2237;51.870;6.160;2023-07-24T10:22:30;100078.94;;;23.29;100.00
4449;BME280;2237;51.870;6.160;2023-07-24T10:24:56;100083.38;;;23.19;100.00
4449;BME280;2237;51.870;6.160;2023-07-24T10:27:24;100079.06;;;23.48;100.00
4449;BME280;2237;51.870;6.160;2023-07-24T10:30:05;100087.22;;;23.66;100.00
4449;BME280;2237;51.870;6.160;2023-07-24T10:32:53;100074.31;;;23.31;100.00
4449;BME280;2237;51.870;6.160;2023-07-24T10:35:21;100076.09;;;23.51;100.00
4449;BME280;2237;51.870;6.160;2023-07-24T10:37:59;100087.16;;;23.26;100.00
4449;BME280;2237;51.870;6.160;2023-07-24T10:40:26;100087.88;;;23.28;100.00
4449;BME280;2237;51.870;6.160;2023-07-24T10:43:00;100092.00;;;22.90;100.00
4449;BME280;2237;51.870;6.160;2023-07-24T10:45:38;100097.06;;;22.93;100.00
4449;BME280;2237;51.870;6.160;2023-07-24T10:48:05;100102.25;;;22.74;100.00
4449;BME280;2237;51.870;6.160;2023-07-24T10:50:42;100105.41;;;22.68;100.00
4449;BME280;2237;51.870;6.160;2023-07-24T10:53:10;100113.06;;;22.50;100.00
4449;BME280;2237;51.870;6.160;2023-07-24T10:55:37;100127.00;;;22.32;100.00
4449;BME280;2237;51.870;6.160;2023-07-24T10:58:05;100130.69;;;22.20;100.00
4449;BME280;2237;51.870;6.160;2023-07-24T11:00:32;100128.16;;;22.07;100.00
4449;BME280;2237;51.870;6.160;2023-07-24T11:02:58;100130.47;;;22.01;100.00
4449;BME280;2237;51.870;6.160;2023-07-24T11:05:25;100137.78;;;22.19;100.00
4449;BME280;2237;51.870;6.160;2023-07-24T11:07:51;100132.97;;;22.13;100.00
4449;BME280;2237;51.870;6.160;2023-07-24T11:10:22;100140.72;;;22.05;100.00
4449;BME280;2237;51.870;6.160;2023-07-24T11:12:49;100146.13;;;22.04;100.00
4449;BME280;2237;51.870;6.160;2023-07-24T11:15:24;100137.06;;;22.06;100.00
4449;BME280;2237;51.870;6.160;2023-07-24T11:17:51;100122.97;;;22.17;100.00
4449;BME280;2237;51.870;6.160;2023-07-24T11:20:18;100123.22;;;22.14;100.00
4449;BME280;2237;51.870;6.160;2023-07-24T11:22:44;100127.69;;;22.02;100.00
4449;BME280;2237;51.870;6.160;2023-07-24T11:25:11;100131.28;;;22.12;100.00
4449;BME280;2237;51.870;6.160;2023-07-24T11:27:42;100135.91;;;21.99;100.00
4449;BME280;2237;51.870;6.160;2023-07-24T11:30:19;100139.13;;;22.14;100.00
4449;BME280;2237;51.870;6.160;2023-07-24T11:32:46;100131.63;;;22.50;100.00
4449;BME280;2237;51.870;6.160;2023-07-24T11:35:13;100126.66;;;22.89;100.00
4449;BME280;2237;51.870;6.160;2023-07-24T11:37:40;100124.94;;;23.50;100.00
4449;BME280;2237;51.870;6.160;2023-07-24T11:40:07;100126.19;;;23.86;100.00
4449;BME280;2237;51.870;6.160;2023-07-24T11:42:40;100107.56;;;24.26;100.00
4449;BME280;2237;51.870;6.160;2023-07-24T11:45:07;100110.97;;;23.97;100.00
4449;BME280;2237;51.870;6.160;2023-07-24T11:47:45;100104.41;;;24.01;100.00
4449;BME280;2237;51.870;6.160;2023-07-24T11:50:13;100090.59;;;24.17;100.00
4449;BME280;2237;51.870;6.160;2023-07-24T11:52:49;100084.44;;;24.45;100.00
4449;BME280;2237;51.870;6.160;2023-07-24T11:55:30;100081.34;;;24.11;100.00
4449;BME280;2237;51.870;6.160;2023-07-24T11:58:01;100076.28;;;24.08;100.00
4449;BME280;2237;51.870;6.160;2023-07-24T12:00:32;100058.38;;;24.49;100.00
4449;BME280;2237;51.870;6.160;2023-07-24T12:03:02;100069.72;;;24.89;100.00
4449;BME280;2237;51.870;6.160;2023-07-24T12:05:42;100065.50;;;24.77;100.00
4449;BME280;2237;51.870;6.160;2023-07-24T12:08:10;100069.50;;;25.10;99.66
4449;BME280;2237;51.870;6.160;2023-07-24T12:10:38;100071.13;;;25.30;97.98
4449;BME280;2237;51.870;6.160;2023-07-24T12:13:06;100063.78;;;24.76;95.94
4449;BME280;2237;51.870;6.160;2023-07-24T12:15:33;100073.78;;;24.55;97.22
4449;BME280;2237;51.870;6.160;2023-07-24T12:18:02;100069.59;;;24.52;94.15
4449;BME280;2237;51.870;6.160;2023-07-24T12:20:30;100093.13;;;24.38;96.51
4449;BME280;2237;51.870;6.160;2023-07-24T12:22:57;100092.13;;;24.39;98.91
4449;BME280;2237;51.870;6.160;2023-07-24T12:25:24;100087.66;;;24.49;97.15
4449;BME280;2237;51.870;6.160;2023-07-24T12:27:50;100092.28;;;24.56;96.40
4449;BME280;2237;51.870;6.160;2023-07-24T12:30:17;100085.66;;;24.70;97.56
4449;BME280;2237;51.870;6.160;2023-07-24T12:32:44;100095.53;;;25.25;97.97
4449;BME280;2237;51.870;6.160;2023-07-24T12:35:10;100094.47;;;25.09;98.23
4449;BME280;2237;51.870;6.160;2023-07-24T12:37:40;100101.78;;;24.97;99.40
4449;BME280;2237;51.870;6.160;2023-07-24T12:40:07;100085.97;;;24.86;100.00
4449;BME280;2237;51.870;6.160;2023-07-24T12:42:34;100090.47;;;24.38;100.00
4449;BME280;2237;51.870;6.160;2023-07-24T12:45:01;100092.00;;;24.59;100.00
4449;BME280;2237;51.870;6.160;2023-07-24T12:47:31;100095.66;;;24.87;100.00
4449;BME280;2237;51.870;6.160;2023-07-24T12:49:58;100096.06;;;24.92;97.88
4449;BME280;2237;51.870;6.160;2023-07-24T12:52:26;100091.28;;;24.96;97.38
4449;BME280;2237;51.870;6.160;2023-07-24T12:54:53;100083.50;;;25.21;96.81
4449;BME280;2237;51.870;6.160;2023-07-24T12:57:27;100083.44;;;24.94;97.60
4449;BME280;2237;51.870;6.160;2023-07-24T12:59:54;100078.19;;;25.12;100.00
4449;BME280;2237;51.870;6.160;2023-07-24T13:02:20;100057.78;;;25.67;97.50
4449;BME280;2237;51.870;6.160;2023-07-24T13:04:47;100063.72;;;26.06;95.31